BrusseLS Bridge — 3FSZ4 — position and weather

sailwx.info

Track history (hours):
 
Tides and Currents Weather Stations Pressure Air Temp Water Temp Dewpoint Dewpoint Depression Visibility Wind Speed Wind Dir Waves Ship Positions

BrusseLS Bridge

Last reported at 2018-Apr-14 14:00 UTC. Time now 2018-Apr-23 19:36 UTC.
Position N 34°50' E 140°14'.
Warning: this ship's position is 9 days out of date.

Length 267 m; draft 10.9 m.

Type: Cargo ship. MMSI: 354362000.

Date/timePositionNaut miles runAvg speedWind from/ knotsBaromVisibWave heightAir tempDewpointWater temp
2018-Apr-14 14:00N 34°50' E 140°14'1019.9
2018-Apr-14 13:29N 34°50' E 140°01'1019.4
2018-Apr-14 12:57N 34°50' E 139°48'817.6
2018-Apr-14 12:29N 34°56' E 139°41'817.8
2018-Apr-14 12:01N 35°04' E 139°43'816.3
2018-Apr-14 11:30N 35°12' E 139°46'511.0
2018-Apr-14 11:00N 35°17' E 139°45'612.2
2018-Apr-14 10:30N 35°23' E 139°42'815.1
2018-Apr-14 10:00N 35°29' E 139°49'611.6
2018-Apr-14 09:30N 35°34' E 139°48'3 6.2
2018-Apr-14 09:00N 35°37' E 139°46'0 0.1
2018-Apr-14 08:29N 35°37' E 139°46'0 0.0
2018-Apr-14 07:56N 35°37' E 139°46'0 0.0
2018-Apr-14 07:29N 35°37' E 139°46'0 0.0
2018-Apr-14 06:50N 35°37' E 139°46'0 0.0
2018-Apr-14 06:29N 35°37' E 139°46'0 0.0
2018-Apr-14 05:50N 35°37' E 139°46'0 0.0
2018-Apr-14 05:14N 35°37' E 139°46'0 0.0
2018-Apr-14 04:59N 35°37' E 139°46'0 0.0
2018-Apr-14 04:26N 35°37' E 139°46'0 0.0
2018-Apr-14 03:44N 35°37' E 139°46'0 0.0
2018-Apr-14 03:29N 35°37' E 139°46'0 0.0
2018-Apr-14 02:59N 35°37' E 139°46'0 0.0
2018-Apr-14 02:08N 35°37' E 139°46'0 0.0
2018-Apr-14 01:59N 35°37' E 139°46'0 0.0
2018-Apr-14 01:08N 35°37' E 139°46'0 0.0
2018-Apr-14 00:47N 35°37' E 139°46'0 0.0
2018-Apr-14 00:29N 35°37' E 139°46'0 0.0
2018-Apr-13 23:59N 35°37' E 139°46'0 0.0
2018-Apr-13 23:23N 35°37' E 139°46'0 0.0
2018-Apr-13 22:59N 35°37' E 139°46'0 0.1
2018-Apr-13 22:30N 35°37' E 139°46'4 8.4
2018-Apr-13 22:01N 35°34' E 139°50'510.9
2018-Apr-13 21:30N 35°28' E 139°51'713.6
2018-Apr-13 21:01N 35°23' E 139°46'510.6
2018-Apr-13 20:30N 35°18' E 139°45'510.9
2018-Apr-13 20:01N 35°13' E 139°47'5 9.6
2018-Apr-13 19:30N 35°08' E 139°47'5 9.2
2018-Apr-13 19:00N 35°04' E 139°45'510.5
2018-Apr-13 18:31N 34°59' E 139°42'611.2
2018-Apr-13 18:00N 34°54' E 139°39'611.5
2018-Apr-13 17:30N 34°49' E 139°35'611.7
2018-Apr-13 17:00N 34°44' E 139°32'1311.6
2018-Apr-13 15:54N 34°37' E 139°19'612.8
2018-Apr-13 15:26N 34°36' E 139°12'1013.1
2018-Apr-13 14:39N 34°32' E 138°60'215.4
2018-Apr-13 14:30N 34°32' E 138°57'1115.1
2018-Apr-13 13:45N 34°32' E 138°43'413.4
2018-Apr-13 13:27N 34°35' E 138°41'613.6
2018-Apr-13 13:00N 34°41' E 138°39'713.8
2018-Apr-13 12:30N 34°47' E 138°34'4 6.8
2018-Apr-13 11:56N 34°50' E 138°31'0 0.9
2018-Apr-13 11:29N 34°50' E 138°31'1 1.2
2018-Apr-13 10:59N 34°49' E 138°32'1 1.2
2018-Apr-13 10:29N 34°49' E 138°32'1 1.4
2018-Apr-13 09:58N 34°48' E 138°32'1 1.4
2018-Apr-13 09:29N 34°47' E 138°33'1 1.8
2018-Apr-13 09:00N 34°48' E 138°33'611.0
2018-Apr-13 08:30N 34°54' E 138°33'611.6
2018-Apr-13 08:00N 34°60' E 138°34'3 7.0
2018-Apr-13 07:30N 35°02' E 138°31'1 1.7
2018-Apr-13 06:59N 35°02' E 138°31'0 0.0
2018-Apr-13 06:29N 35°02' E 138°31'0 0.0
2018-Apr-13 05:59N 35°02' E 138°31'0 0.0
2018-Apr-13 05:29N 35°02' E 138°31'0 0.0
2018-Apr-13 04:59N 35°02' E 138°31'0 0.0
2018-Apr-13 04:29N 35°02' E 138°31'0 0.0
2018-Apr-13 03:59N 35°02' E 138°31'0 0.0
2018-Apr-13 03:29N 35°02' E 138°31'0 0.0
2018-Apr-13 02:59N 35°02' E 138°31'0 0.0
2018-Apr-13 02:29N 35°02' E 138°31'0 0.0
2018-Apr-13 01:59N 35°02' E 138°31'0 0.0
2018-Apr-13 01:29N 35°02' E 138°31'0 0.0
2018-Apr-13 00:59N 35°02' E 138°31'0 0.0
2018-Apr-13 00:29N 35°02' E 138°31'0 0.0
2018-Apr-12 23:59N 35°02' E 138°31'0 0.0
2018-Apr-12 23:29N 35°02' E 138°31'0 0.0
2018-Apr-12 22:59N 35°02' E 138°31'0 0.0
2018-Apr-12 22:29N 35°02' E 138°31'0 0.0
2018-Apr-12 22:00N 35°02' E 138°31'1 1.7
2018-Apr-12 21:30N 35°02' E 138°32'3 6.4
2018-Apr-12 21:00N 34°59' E 138°34'815.5
2018-Apr-12 20:30N 34°52' E 138°31'815.9
2018-Apr-12 20:00N 34°44' E 138°28'815.7
2018-Apr-12 19:30N 34°37' E 138°24'815.5
2018-Apr-12 19:00N 34°30' E 138°21'714.1
2018-Apr-12 18:30N 34°28' E 138°13'815.3
2018-Apr-12 17:59N 34°28' E 138°03'815.1
2018-Apr-12 17:26N 34°28' E 137°53'715.7
2018-Apr-12 16:58N 34°28' E 137°44'3416.1
2018-Apr-12 14:50N 34°31' E 137°03'712.0
2018-Apr-12 14:16N 34°36' E 136°57'416.0
2018-Apr-12 14:00N 34°38' E 136°53'916.7
2018-Apr-12 13:28N 34°45' E 136°47'918.7
2018-Apr-12 13:00N 34°54' E 136°46'815.0
2018-Apr-12 12:30N 35°01' E 136°50'2 3.5
2018-Apr-12 12:00N 35°02' E 136°50'0 0.0
2018-Apr-12 11:28N 35°02' E 136°50'0 0.0
2018-Apr-12 10:58N 35°02' E 136°50'0 0.0
2018-Apr-12 10:28N 35°02' E 136°50'0 0.0
2018-Apr-12 09:58N 35°02' E 136°50'0 0.0
2018-Apr-12 09:25N 35°02' E 136°50'0 0.0
2018-Apr-12 08:58N 35°02' E 136°50'0 0.0
2018-Apr-12 08:28N 35°02' E 136°50'0 0.0
2018-Apr-12 07:58N 35°02' E 136°50'0 0.0
2018-Apr-12 07:28N 35°02' E 136°50'0 0.0
2018-Apr-12 06:58N 35°02' E 136°50'0 0.0
2018-Apr-12 06:28N 35°02' E 136°50'0 0.0
2018-Apr-12 05:58N 35°02' E 136°50'0 0.0
2018-Apr-12 05:28N 35°02' E 136°50'0 0.0
2018-Apr-12 04:58N 35°02' E 136°50'0 0.0
2018-Apr-12 04:28N 35°02' E 136°50'0 0.0
2018-Apr-12 03:55N 35°02' E 136°50'0 0.0
2018-Apr-12 03:28N 35°02' E 136°50'0 0.0
2018-Apr-12 02:58N 35°02' E 136°50'0 0.0
2018-Apr-12 02:28N 35°02' E 136°50'0 0.0
2018-Apr-12 01:55N 35°02' E 136°50'0 0.4
2018-Apr-12 01:30N 35°02' E 136°50'5 9.7
2018-Apr-12 01:01N 34°58' E 136°48'815.2
2018-Apr-12 00:30N 34°50' E 136°47'917.2
2018-Apr-12 00:01N 34°42' E 136°51'917.4
2018-Apr-11 23:30N 34°36' E 136°58'713.1
2018-Apr-11 22:59N 34°31' E 137°04'611.1
2018-Apr-11 22:29N 34°26' E 137°04'3411.0
2018-Apr-11 19:23N 33°56' E 136°43'8710.2
2018-Apr-11 10:55N 33°50' E 134°59'613.2
2018-Apr-11 10:29N 33°55' E 134°59'612.9
2018-Apr-11 10:00N 34°02' E 134°58'713.2
2018-Apr-11 09:28N 34°09' E 134°57'510.8
2018-Apr-11 09:00N 34°14' E 134°57'714.8
2018-Apr-11 08:30N 34°21' E 134°59'918.7
2018-Apr-11 08:00N 34°28' E 135°07'919.0
2018-Apr-11 07:30N 34°35' E 135°14'611.5
2018-Apr-11 07:00N 34°41' E 135°15'0 0.4
2018-Apr-11 06:28N 34°41' E 135°16'0 0.0
2018-Apr-11 05:58N 34°41' E 135°16'0 0.0
2018-Apr-11 05:28N 34°41' E 135°16'0 0.0
2018-Apr-11 04:55N 34°41' E 135°16'0 0.0
2018-Apr-11 04:28N 34°41' E 135°16'0 0.0
2018-Apr-11 03:58N 34°41' E 135°16'0 0.0
2018-Apr-11 03:28N 34°41' E 135°16'0 0.0
2018-Apr-11 02:58N 34°41' E 135°16'0 0.0
2018-Apr-11 02:28N 34°41' E 135°16'0 0.0
2018-Apr-11 01:58N 34°41' E 135°16'0 0.0
2018-Apr-11 01:28N 34°41' E 135°16'0 0.0
2018-Apr-11 00:58N 34°41' E 135°16'0 0.0
2018-Apr-11 00:28N 34°41' E 135°16'0 0.0
2018-Apr-10 23:58N 34°41' E 135°16'0 0.0
2018-Apr-10 23:28N 34°41' E 135°16'0 0.0
2018-Apr-10 22:58N 34°41' E 135°16'0 0.0
2018-Apr-10 22:28N 34°41' E 135°16'0 0.0
2018-Apr-10 21:58N 34°41' E 135°16'0 0.0
2018-Apr-10 21:28N 34°41' E 135°16'0 0.0
2018-Apr-10 20:58N 34°41' E 135°16'0 0.0
2018-Apr-10 20:28N 34°41' E 135°16'0 0.0
2018-Apr-10 19:58N 34°41' E 135°16'0 0.0
2018-Apr-10 19:28N 34°41' E 135°16'0 0.0
2018-Apr-10 18:58N 34°41' E 135°16'0 0.0
2018-Apr-10 18:28N 34°41' E 135°16'0 0.0
2018-Apr-10 17:58N 34°41' E 135°16'0 0.0
2018-Apr-10 17:25N 34°41' E 135°16'0 0.0
2018-Apr-10 16:58N 34°41' E 135°16'0 0.0
2018-Apr-10 16:28N 34°41' E 135°16'0 0.0
2018-Apr-10 15:55N 34°41' E 135°16'0 0.0
2018-Apr-10 15:28N 34°41' E 135°16'0 0.0
2018-Apr-10 14:58N 34°41' E 135°16'0 0.0
2018-Apr-10 14:28N 34°41' E 135°16'0 0.0
2018-Apr-10 13:58N 34°41' E 135°16'0 0.0
2018-Apr-10 13:28N 34°41' E 135°16'0 0.0
2018-Apr-10 12:58N 34°41' E 135°16'0 0.0
2018-Apr-10 12:28N 34°41' E 135°16'0 0.0
2018-Apr-10 11:58N 34°41' E 135°16'0 0.0
2018-Apr-10 11:28N 34°41' E 135°16'0 0.0
2018-Apr-10 10:58N 34°41' E 135°16'0 0.0
2018-Apr-10 10:28N 34°41' E 135°16'0 0.0
2018-Apr-10 09:58N 34°41' E 135°16'0 0.0
2018-Apr-10 09:28N 34°41' E 135°16'0 0.0
2018-Apr-10 08:58N 34°41' E 135°16'0 0.0
2018-Apr-10 08:25N 34°41' E 135°16'0 0.0
2018-Apr-10 07:58N 34°41' E 135°16'0 0.0
2018-Apr-10 07:28N 34°41' E 135°16'0 0.0
2018-Apr-10 06:58N 34°41' E 135°16'0 0.4
2018-Apr-10 06:30N 34°41' E 135°15'3 5.8
2018-Apr-10 06:01N 34°38' E 135°17'612.5
2018-Apr-10 05:30N 34°32' E 135°14'917.6
2018-Apr-10 05:00N 34°25' E 135°07'917.5
2018-Apr-10 04:30N 34°19' E 135°00'815.5
2018-Apr-10 04:00N 34°11' E 134°59'816.4
2018-Apr-10 03:31N 34°03' E 134°59'917.7
2018-Apr-10 03:01N 33°54' E 135°00'917.3
2018-Apr-10 02:30N 33°46' E 135°06'1418.7
2018-Apr-10 01:44N 33°36' E 135°17'820.2
2018-Apr-10 01:21N 33°30' E 135°24'13721.7
2018-Apr-09 19:02N 34°10' E 138°02'422.3
2018-Apr-09 18:52N 34°11' E 138°06'922.4
2018-Apr-09 18:28N 34°14' E 138°16'1521.7
2018-Apr-09 17:48N 34°20' E 138°32'721.1
2018-Apr-09 17:29N 34°23' E 138°40'1020.9
2018-Apr-09 17:00N 34°27' E 138°51'1020.8
2018-Apr-09 16:30N 34°31' E 139°02'1020.4
2018-Apr-09 16:00N 34°35' E 139°14'1020.6
2018-Apr-09 15:30N 34°36' E 139°26'918.7
2018-Apr-09 15:00N 34°44' E 139°33'1121.8
2018-Apr-09 14:30N 34°54' E 139°38'1121.8
2018-Apr-09 14:00N 35°03' E 139°44'816.8
2018-Apr-09 13:31N 35°12' E 139°45'5 9.7
2018-Apr-09 13:00N 35°17' E 139°45'713.2
2018-Apr-09 12:30N 35°23' E 139°42'714.5
2018-Apr-09 12:00N 35°28' E 139°48'612.4
2018-Apr-09 11:30N 35°34' E 139°49'4 7.1
2018-Apr-09 11:01N 35°37' E 139°46'0 0.3
2018-Apr-09 10:27N 35°37' E 139°46'0 0.0
2018-Apr-09 09:51N 35°37' E 139°46'0 0.0
2018-Apr-09 08:00N 35°37' E 139°46'0 0.0
2018-Apr-09 07:24N 35°37' E 139°46'0 0.0
2018-Apr-09 07:00N 35°37' E 139°46'0 0.0
2018-Apr-09 06:27N 35°37' E 139°46'0 0.0
2018-Apr-09 06:00N 35°37' E 139°46'0 0.0
2018-Apr-09 05:21N 35°37' E 139°46'0 0.0
2018-Apr-09 05:00N 35°37' E 139°46'0 0.0
2018-Apr-09 04:27N 35°37' E 139°46'0 0.0
2018-Apr-09 04:00N 35°37' E 139°46'0 0.0
2018-Apr-09 03:24N 35°37' E 139°46'0 0.0
2018-Apr-09 03:00N 35°37' E 139°46'0 0.0
2018-Apr-09 02:21N 35°37' E 139°46'0 0.0
2018-Apr-09 02:00N 35°37' E 139°46'0 0.0
2018-Apr-09 01:30N 35°37' E 139°46'0 0.0
2018-Apr-09 00:54N 35°37' E 139°46'0 0.0
2018-Apr-09 00:30N 35°37' E 139°46'0 0.0
2018-Apr-09 00:00N 35°37' E 139°46'0 0.0
2018-Apr-08 23:21N 35°37' E 139°46'0 0.1
2018-Apr-08 22:48N 35°37' E 139°46'0 1.0
2018-Apr-08 22:29N 35°37' E 139°46'3 6.1
2018-Apr-08 22:01N 35°34' E 139°48'611.4
2018-Apr-08 21:30N 35°30' E 139°52'713.7
2018-Apr-08 21:00N 35°25' E 139°47'613.1
2018-Apr-08 20:30N 35°18' E 139°44'611.5
2018-Apr-08 20:00N 35°13' E 139°47'510.3
2018-Apr-08 19:30N 35°08' E 139°47'612.8
2018-Apr-08 19:00N 35°02' E 139°43'713.1
2018-Apr-08 18:30N 34°56' E 139°41'612.7
2018-Apr-08 18:00N 34°51' E 139°46'712.1
2018-Apr-08 17:27N 34°50' E 139°54'614.0
2018-Apr-08 17:00N 34°51' E 140°02'815.3
2018-Apr-08 16:30N 34°56' E 140°10'714.7
2018-Apr-08 16:01N 34°60' E 140°17'714.4
2018-Apr-08 15:30N 35°04' E 140°24'813.8
2018-Apr-08 14:56N 35°09' E 140°32'  
Track history (hours):
 
Tides and Currents Weather Stations Pressure Air Temp Water Temp Dewpoint Dewpoint Depression Visibility Wind Speed Wind Dir Waves Ship Positions

BrusseLS Bridge

Last reported at 2018-Apr-14 14:00 UTC. Time now 2018-Apr-23 19:36 UTC.
Position N 34°50' E 140°14'.
Warning: this ship's position is 9 days out of date.

Length 267 m; draft 10.9 m.

Type: Cargo ship. MMSI: 354362000.

Date/timePositionNaut miles runAvg speedWind from/ knotsBaromVisibWave heightAir tempDewpointWater temp
2018-Apr-14 14:00N 34°50' E 140°14'1019.9
2018-Apr-14 13:29N 34°50' E 140°01'1019.4
2018-Apr-14 12:57N 34°50' E 139°48'817.6
2018-Apr-14 12:29N 34°56' E 139°41'817.8
2018-Apr-14 12:01N 35°04' E 139°43'816.3
2018-Apr-14 11:30N 35°12' E 139°46'511.0
2018-Apr-14 11:00N 35°17' E 139°45'612.2
2018-Apr-14 10:30N 35°23' E 139°42'815.1
2018-Apr-14 10:00N 35°29' E 139°49'611.6
2018-Apr-14 09:30N 35°34' E 139°48'3 6.2
2018-Apr-14 09:00N 35°37' E 139°46'0 0.1
2018-Apr-14 08:29N 35°37' E 139°46'0 0.0
2018-Apr-14 07:56N 35°37' E 139°46'0 0.0
2018-Apr-14 07:29N 35°37' E 139°46'0 0.0
2018-Apr-14 06:50N 35°37' E 139°46'0 0.0
2018-Apr-14 06:29N 35°37' E 139°46'0 0.0
2018-Apr-14 05:50N 35°37' E 139°46'0 0.0
2018-Apr-14 05:14N 35°37' E 139°46'0 0.0
2018-Apr-14 04:59N 35°37' E 139°46'0 0.0
2018-Apr-14 04:26N 35°37' E 139°46'0 0.0
2018-Apr-14 03:44N 35°37' E 139°46'0 0.0
2018-Apr-14 03:29N 35°37' E 139°46'0 0.0
2018-Apr-14 02:59N 35°37' E 139°46'0 0.0
2018-Apr-14 02:08N 35°37' E 139°46'0 0.0
2018-Apr-14 01:59N 35°37' E 139°46'0 0.0
2018-Apr-14 01:08N 35°37' E 139°46'0 0.0
2018-Apr-14 00:47N 35°37' E 139°46'0 0.0
2018-Apr-14 00:29N 35°37' E 139°46'0 0.0
2018-Apr-13 23:59N 35°37' E 139°46'0 0.0
2018-Apr-13 23:23N 35°37' E 139°46'0 0.0
2018-Apr-13 22:59N 35°37' E 139°46'0 0.1
2018-Apr-13 22:30N 35°37' E 139°46'4 8.4
2018-Apr-13 22:01N 35°34' E 139°50'510.9
2018-Apr-13 21:30N 35°28' E 139°51'713.6
2018-Apr-13 21:01N 35°23' E 139°46'510.6
2018-Apr-13 20:30N 35°18' E 139°45'510.9
2018-Apr-13 20:01N 35°13' E 139°47'5 9.6
2018-Apr-13 19:30N 35°08' E 139°47'5 9.2
2018-Apr-13 19:00N 35°04' E 139°45'510.5
2018-Apr-13 18:31N 34°59' E 139°42'611.2
2018-Apr-13 18:00N 34°54' E 139°39'611.5
2018-Apr-13 17:30N 34°49' E 139°35'611.7
2018-Apr-13 17:00N 34°44' E 139°32'1311.6
2018-Apr-13 15:54N 34°37' E 139°19'612.8
2018-Apr-13 15:26N 34°36' E 139°12'1013.1
2018-Apr-13 14:39N 34°32' E 138°60'215.4
2018-Apr-13 14:30N 34°32' E 138°57'1115.1
2018-Apr-13 13:45N 34°32' E 138°43'413.4
2018-Apr-13 13:27N 34°35' E 138°41'613.6
2018-Apr-13 13:00N 34°41' E 138°39'713.8
2018-Apr-13 12:30N 34°47' E 138°34'4 6.8
2018-Apr-13 11:56N 34°50' E 138°31'0 0.9
2018-Apr-13 11:29N 34°50' E 138°31'1 1.2
2018-Apr-13 10:59N 34°49' E 138°32'1 1.2
2018-Apr-13 10:29N 34°49' E 138°32'1 1.4
2018-Apr-13 09:58N 34°48' E 138°32'1 1.4
2018-Apr-13 09:29N 34°47' E 138°33'1 1.8
2018-Apr-13 09:00N 34°48' E 138°33'611.0
2018-Apr-13 08:30N 34°54' E 138°33'611.6
2018-Apr-13 08:00N 34°60' E 138°34'3 7.0
2018-Apr-13 07:30N 35°02' E 138°31'1 1.7
2018-Apr-13 06:59N 35°02' E 138°31'0 0.0
2018-Apr-13 06:29N 35°02' E 138°31'0 0.0
2018-Apr-13 05:59N 35°02' E 138°31'0 0.0
2018-Apr-13 05:29N 35°02' E 138°31'0 0.0
2018-Apr-13 04:59N 35°02' E 138°31'0 0.0
2018-Apr-13 04:29N 35°02' E 138°31'0 0.0
2018-Apr-13 03:59N 35°02' E 138°31'0 0.0
2018-Apr-13 03:29N 35°02' E 138°31'0 0.0
2018-Apr-13 02:59N 35°02' E 138°31'0 0.0
2018-Apr-13 02:29N 35°02' E 138°31'0 0.0
2018-Apr-13 01:59N 35°02' E 138°31'0 0.0
2018-Apr-13 01:29N 35°02' E 138°31'0 0.0
2018-Apr-13 00:59N 35°02' E 138°31'0 0.0
2018-Apr-13 00:29N 35°02' E 138°31'0 0.0
2018-Apr-12 23:59N 35°02' E 138°31'0 0.0
2018-Apr-12 23:29N 35°02' E 138°31'0 0.0
2018-Apr-12 22:59N 35°02' E 138°31'0 0.0
2018-Apr-12 22:29N 35°02' E 138°31'0 0.0
2018-Apr-12 22:00N 35°02' E 138°31'1 1.7
2018-Apr-12 21:30N 35°02' E 138°32'3 6.4
2018-Apr-12 21:00N 34°59' E 138°34'815.5
2018-Apr-12 20:30N 34°52' E 138°31'815.9
2018-Apr-12 20:00N 34°44' E 138°28'815.7
2018-Apr-12 19:30N 34°37' E 138°24'815.5
2018-Apr-12 19:00N 34°30' E 138°21'714.1
2018-Apr-12 18:30N 34°28' E 138°13'815.3
2018-Apr-12 17:59N 34°28' E 138°03'815.1
2018-Apr-12 17:26N 34°28' E 137°53'715.7
2018-Apr-12 16:58N 34°28' E 137°44'3416.1
2018-Apr-12 14:50N 34°31' E 137°03'712.0
2018-Apr-12 14:16N 34°36' E 136°57'416.0
2018-Apr-12 14:00N 34°38' E 136°53'916.7
2018-Apr-12 13:28N 34°45' E 136°47'918.7
2018-Apr-12 13:00N 34°54' E 136°46'815.0
2018-Apr-12 12:30N 35°01' E 136°50'2 3.5
2018-Apr-12 12:00N 35°02' E 136°50'0 0.0
2018-Apr-12 11:28N 35°02' E 136°50'0 0.0
2018-Apr-12 10:58N 35°02' E 136°50'0 0.0
2018-Apr-12 10:28N 35°02' E 136°50'0 0.0
2018-Apr-12 09:58N 35°02' E 136°50'0 0.0
2018-Apr-12 09:25N 35°02' E 136°50'0 0.0
2018-Apr-12 08:58N 35°02' E 136°50'0 0.0
2018-Apr-12 08:28N 35°02' E 136°50'0 0.0
2018-Apr-12 07:58N 35°02' E 136°50'0 0.0
2018-Apr-12 07:28N 35°02' E 136°50'0 0.0
2018-Apr-12 06:58N 35°02' E 136°50'0 0.0
2018-Apr-12 06:28N 35°02' E 136°50'0 0.0
2018-Apr-12 05:58N 35°02' E 136°50'0 0.0
2018-Apr-12 05:28N 35°02' E 136°50'0 0.0
2018-Apr-12 04:58N 35°02' E 136°50'0 0.0
2018-Apr-12 04:28N 35°02' E 136°50'0 0.0
2018-Apr-12 03:55N 35°02' E 136°50'0 0.0
2018-Apr-12 03:28N 35°02' E 136°50'0 0.0
2018-Apr-12 02:58N 35°02' E 136°50'0 0.0
2018-Apr-12 02:28N 35°02' E 136°50'0 0.0
2018-Apr-12 01:55N 35°02' E 136°50'0 0.4
2018-Apr-12 01:30N 35°02' E 136°50'5 9.7
2018-Apr-12 01:01N 34°58' E 136°48'815.2
2018-Apr-12 00:30N 34°50' E 136°47'917.2
2018-Apr-12 00:01N 34°42' E 136°51'917.4
2018-Apr-11 23:30N 34°36' E 136°58'713.1
2018-Apr-11 22:59N 34°31' E 137°04'611.1
2018-Apr-11 22:29N 34°26' E 137°04'3411.0
2018-Apr-11 19:23N 33°56' E 136°43'8710.2
2018-Apr-11 10:55N 33°50' E 134°59'613.2
2018-Apr-11 10:29N 33°55' E 134°59'612.9
2018-Apr-11 10:00N 34°02' E 134°58'713.2
2018-Apr-11 09:28N 34°09' E 134°57'510.8
2018-Apr-11 09:00N 34°14' E 134°57'714.8
2018-Apr-11 08:30N 34°21' E 134°59'918.7
2018-Apr-11 08:00N 34°28' E 135°07'919.0
2018-Apr-11 07:30N 34°35' E 135°14'611.5
2018-Apr-11 07:00N 34°41' E 135°15'0 0.4
2018-Apr-11 06:28N 34°41' E 135°16'0 0.0
2018-Apr-11 05:58N 34°41' E 135°16'0 0.0
2018-Apr-11 05:28N 34°41' E 135°16'0 0.0
2018-Apr-11 04:55N 34°41' E 135°16'0 0.0
2018-Apr-11 04:28N 34°41' E 135°16'0 0.0
2018-Apr-11 03:58N 34°41' E 135°16'0 0.0
2018-Apr-11 03:28N 34°41' E 135°16'0 0.0
2018-Apr-11 02:58N 34°41' E 135°16'0 0.0
2018-Apr-11 02:28N 34°41' E 135°16'0 0.0
2018-Apr-11 01:58N 34°41' E 135°16'0 0.0
2018-Apr-11 01:28N 34°41' E 135°16'0 0.0
2018-Apr-11 00:58N 34°41' E 135°16'0 0.0
2018-Apr-11 00:28N 34°41' E 135°16'0 0.0
2018-Apr-10 23:58N 34°41' E 135°16'0 0.0
2018-Apr-10 23:28N 34°41' E 135°16'0 0.0
2018-Apr-10 22:58N 34°41' E 135°16'0 0.0
2018-Apr-10 22:28N 34°41' E 135°16'0 0.0
2018-Apr-10 21:58N 34°41' E 135°16'0 0.0
2018-Apr-10 21:28N 34°41' E 135°16'0 0.0
2018-Apr-10 20:58N 34°41' E 135°16'0 0.0
2018-Apr-10 20:28N 34°41' E 135°16'0 0.0
2018-Apr-10 19:58N 34°41' E 135°16'0 0.0
2018-Apr-10 19:28N 34°41' E 135°16'0 0.0
2018-Apr-10 18:58N 34°41' E 135°16'0 0.0
2018-Apr-10 18:28N 34°41' E 135°16'0 0.0
2018-Apr-10 17:58N 34°41' E 135°16'0 0.0
2018-Apr-10 17:25N 34°41' E 135°16'0 0.0
2018-Apr-10 16:58N 34°41' E 135°16'0 0.0
2018-Apr-10 16:28N 34°41' E 135°16'0 0.0
2018-Apr-10 15:55N 34°41' E 135°16'0 0.0
2018-Apr-10 15:28N 34°41' E 135°16'0 0.0
2018-Apr-10 14:58N 34°41' E 135°16'0 0.0
2018-Apr-10 14:28N 34°41' E 135°16'0 0.0
2018-Apr-10 13:58N 34°41' E 135°16'0 0.0
2018-Apr-10 13:28N 34°41' E 135°16'0 0.0
2018-Apr-10 12:58N 34°41' E 135°16'0 0.0
2018-Apr-10 12:28N 34°41' E 135°16'0 0.0
2018-Apr-10 11:58N 34°41' E 135°16'0 0.0
2018-Apr-10 11:28N 34°41' E 135°16'0 0.0
2018-Apr-10 10:58N 34°41' E 135°16'0 0.0
2018-Apr-10 10:28N 34°41' E 135°16'0 0.0
2018-Apr-10 09:58N 34°41' E 135°16'0 0.0
2018-Apr-10 09:28N 34°41' E 135°16'0 0.0
2018-Apr-10 08:58N 34°41' E 135°16'0 0.0
2018-Apr-10 08:25N 34°41' E 135°16'0 0.0
2018-Apr-10 07:58N 34°41' E 135°16'0 0.0
2018-Apr-10 07:28N 34°41' E 135°16'0 0.0
2018-Apr-10 06:58N 34°41' E 135°16'0 0.4
2018-Apr-10 06:30N 34°41' E 135°15'3 5.8
2018-Apr-10 06:01N 34°38' E 135°17'612.5
2018-Apr-10 05:30N 34°32' E 135°14'917.6
2018-Apr-10 05:00N 34°25' E 135°07'917.5
2018-Apr-10 04:30N 34°19' E 135°00'815.5
2018-Apr-10 04:00N 34°11' E 134°59'816.4
2018-Apr-10 03:31N 34°03' E 134°59'917.7
2018-Apr-10 03:01N 33°54' E 135°00'917.3
2018-Apr-10 02:30N 33°46' E 135°06'1418.7
2018-Apr-10 01:44N 33°36' E 135°17'820.2
2018-Apr-10 01:21N 33°30' E 135°24'13721.7
2018-Apr-09 19:02N 34°10' E 138°02'422.3
2018-Apr-09 18:52N 34°11' E 138°06'922.4
2018-Apr-09 18:28N 34°14' E 138°16'1521.7
2018-Apr-09 17:48N 34°20' E 138°32'721.1
2018-Apr-09 17:29N 34°23' E 138°40'1020.9
2018-Apr-09 17:00N 34°27' E 138°51'1020.8
2018-Apr-09 16:30N 34°31' E 139°02'1020.4
2018-Apr-09 16:00N 34°35' E 139°14'1020.6
2018-Apr-09 15:30N 34°36' E 139°26'918.7
2018-Apr-09 15:00N 34°44' E 139°33'1121.8
2018-Apr-09 14:30N 34°54' E 139°38'1121.8
2018-Apr-09 14:00N 35°03' E 139°44'816.8
2018-Apr-09 13:31N 35°12' E 139°45'5 9.7
2018-Apr-09 13:00N 35°17' E 139°45'713.2
2018-Apr-09 12:30N 35°23' E 139°42'714.5
2018-Apr-09 12:00N 35°28' E 139°48'612.4
2018-Apr-09 11:30N 35°34' E 139°49'4 7.1
2018-Apr-09 11:01N 35°37' E 139°46'0 0.3
2018-Apr-09 10:27N 35°37' E 139°46'0 0.0
2018-Apr-09 09:51N 35°37' E 139°46'0 0.0
2018-Apr-09 08:00N 35°37' E 139°46'0 0.0
2018-Apr-09 07:24N 35°37' E 139°46'0 0.0
2018-Apr-09 07:00N 35°37' E 139°46'0 0.0
2018-Apr-09 06:27N 35°37' E 139°46'0 0.0
2018-Apr-09 06:00N 35°37' E 139°46'0 0.0
2018-Apr-09 05:21N 35°37' E 139°46'0 0.0
2018-Apr-09 05:00N 35°37' E 139°46'0 0.0
2018-Apr-09 04:27N 35°37' E 139°46'0 0.0
2018-Apr-09 04:00N 35°37' E 139°46'0 0.0
2018-Apr-09 03:24N 35°37' E 139°46'0 0.0
2018-Apr-09 03:00N 35°37' E 139°46'0 0.0
2018-Apr-09 02:21N 35°37' E 139°46'0 0.0
2018-Apr-09 02:00N 35°37' E 139°46'0 0.0
2018-Apr-09 01:30N 35°37' E 139°46'0 0.0
2018-Apr-09 00:54N 35°37' E 139°46'0 0.0
2018-Apr-09 00:30N 35°37' E 139°46'0 0.0
2018-Apr-09 00:00N 35°37' E 139°46'0 0.0
2018-Apr-08 23:21N 35°37' E 139°46'0 0.1
2018-Apr-08 22:48N 35°37' E 139°46'0 1.0
2018-Apr-08 22:29N 35°37' E 139°46'3 6.1
2018-Apr-08 22:01N 35°34' E 139°48'611.4
2018-Apr-08 21:30N 35°30' E 139°52'713.7
2018-Apr-08 21:00N 35°25' E 139°47'613.1
2018-Apr-08 20:30N 35°18' E 139°44'611.5
2018-Apr-08 20:00N 35°13' E 139°47'510.3
2018-Apr-08 19:30N 35°08' E 139°47'612.8
2018-Apr-08 19:00N 35°02' E 139°43'713.1
2018-Apr-08 18:30N 34°56' E 139°41'612.7
2018-Apr-08 18:00N 34°51' E 139°46'712.1
2018-Apr-08 17:27N 34°50' E 139°54'614.0
2018-Apr-08 17:00N 34°51' E 140°02'815.3
2018-Apr-08 16:30N 34°56' E 140°10'714.7
2018-Apr-08 16:01N 34°60' E 140°17'714.4
2018-Apr-08 15:30N 35°04' E 140°24'813.8
2018-Apr-08 14:56N 35°09' E 140°32'  

Dump ship's entire track history